createdAt,value
2024-01-25T06:02:20.775Z,600.00
2024-01-25T06:02:58.212Z,600.00
2024-01-25T06:03:58.375Z,600.00
2024-01-25T06:04:58.292Z,600.00
2024-01-25T06:05:58.306Z,600.00
2024-01-25T06:06:58.371Z,600.00
2024-01-25T06:07:58.405Z,577.00
2024-01-25T06:09:06.542Z,547.00
2024-01-25T06:09:59.243Z,498.00
2024-01-25T06:10:58.198Z,455.00
2024-01-25T06:11:58.197Z,418.00
2024-01-25T06:12:58.293Z,400.00
2024-01-25T06:13:58.344Z,400.00
2024-01-25T06:14:58.245Z,400.00
2024-01-25T06:15:58.265Z,400.00
2024-01-25T06:16:58.231Z,400.00
2024-01-25T06:17:58.285Z,400.00
2024-01-25T06:18:58.359Z,400.00
2024-01-25T06:19:58.324Z,400.00
2024-01-25T06:20:58.226Z,424.00
2024-01-25T06:21:58.268Z,457.00
2024-01-25T06:22:58.245Z,491.00
2024-01-25T06:23:58.241Z,527.00
2024-01-25T06:24:58.349Z,561.00
2024-01-25T06:25:58.288Z,597.00
2024-01-25T06:26:58.386Z,601.00
2024-01-25T06:27:58.516Z,600.00
2024-01-25T06:28:58.472Z,601.00
2024-01-25T06:29:58.519Z,600.00
2024-01-25T06:30:58.682Z,603.00
2024-01-25T06:31:58.610Z,600.00
2024-01-25T06:32:58.823Z,603.00
2024-01-25T06:33:58.912Z,600.00
2024-01-25T06:34:58.933Z,603.00
2024-01-25T06:35:58.738Z,601.00
2024-01-25T06:36:58.794Z,600.00
2024-01-25T06:37:58.808Z,600.00
2024-01-25T06:38:58.843Z,602.00
2024-01-25T06:39:58.894Z,600.00
2024-01-25T06:40:58.828Z,600.00
2024-01-25T06:41:58.872Z,603.00
2024-01-25T06:42:58.880Z,605.00
2024-01-25T06:43:58.869Z,607.00
2024-01-25T06:44:58.887Z,610.00
2024-01-25T06:45:58.900Z,605.00
2024-01-25T06:46:58.900Z,601.00
2024-01-25T06:47:58.941Z,598.00
2024-01-25T06:48:59.020Z,601.00
2024-01-25T06:49:58.949Z,599.00
2024-01-25T06:50:58.942Z,605.00
2024-01-25T06:51:58.972Z,609.00
2024-01-25T06:52:58.934Z,604.00
2024-01-25T06:53:58.944Z,602.00
2024-01-25T06:54:58.976Z,602.00
2024-01-25T06:55:58.953Z,601.00
2024-01-25T06:56:58.973Z,601.00
2024-01-25T06:57:59.037Z,601.00
2024-01-25T06:58:59.031Z,606.00
2024-01-25T06:59:59.066Z,603.00
2024-01-25T07:00:59.359Z,602.00
2024-01-25T07:01:59.303Z,608.00
2024-01-25T07:03:00.255Z,600.00
2024-01-25T07:03:59.431Z,605.00
2024-01-25T07:04:59.560Z,599.00
2024-01-25T07:05:59.481Z,602.00
2024-01-25T07:06:59.606Z,603.00
2024-01-25T07:07:59.597Z,608.00
2024-01-25T07:08:59.592Z,601.00
2024-01-25T07:09:59.722Z,603.00
2024-01-25T07:10:59.745Z,604.00
2024-01-25T07:11:59.800Z,603.00
2024-01-25T07:12:59.879Z,605.00
2024-01-25T07:13:59.916Z,602.00
2024-01-25T07:14:59.938Z,600.00
2024-01-25T07:16:00.030Z,603.00
2024-01-25T07:17:00.003Z,603.00
2024-01-25T07:18:00.111Z,603.00
2024-01-25T07:19:00.255Z,605.00
2024-01-25T07:20:00.283Z,613.00
2024-01-25T07:21:00.183Z,614.00
2024-01-25T07:22:00.282Z,612.00
2024-01-25T07:23:00.250Z,619.00
2024-01-25T07:24:00.247Z,621.00
2024-01-25T07:25:00.393Z,614.00
2024-01-25T07:26:00.281Z,618.00
2024-01-25T07:27:00.418Z,621.00
2024-01-25T07:28:00.556Z,625.00
2024-01-25T07:29:00.347Z,628.00
2024-01-25T07:30:00.350Z,627.00
2024-01-25T07:31:00.403Z,622.00
2024-01-25T07:32:00.371Z,626.00
2024-01-25T07:33:00.419Z,630.00
2024-01-25T07:34:00.525Z,632.00
2024-01-25T07:35:00.708Z,631.00
2024-01-25T07:36:00.435Z,633.00
2024-01-25T07:37:00.534Z,636.00
2024-01-25T07:38:00.481Z,635.00
2024-01-25T07:39:00.581Z,630.00
2024-01-25T07:40:00.598Z,634.00
2024-01-25T07:41:00.540Z,636.00
2024-01-25T07:42:00.537Z,630.00
2024-01-25T07:43:00.604Z,625.00
2024-01-25T07:44:00.554Z,611.00
2024-01-25T07:45:00.628Z,599.00
2024-01-25T07:46:00.681Z,602.00
2024-01-25T07:47:00.672Z,600.00
2024-01-25T07:48:09.139Z,600.00
2024-01-25T07:49:01.839Z,598.00
2024-01-25T07:50:00.841Z,596.00
2024-01-25T07:51:00.928Z,593.00
2024-01-25T07:52:00.778Z,587.00
2024-01-25T07:53:00.665Z,592.00
2024-01-25T07:54:00.667Z,601.00
2024-01-25T07:55:02.088Z,600.00
2024-01-25T07:56:00.689Z,604.00
2024-01-25T07:57:00.736Z,605.00
2024-01-25T07:58:00.738Z,602.00
2024-01-25T07:59:00.688Z,603.00
2024-01-25T08:00:00.727Z,601.00
2024-01-25T08:01:00.748Z,607.00
2024-01-25T08:02:00.909Z,603.00
2024-01-25T08:03:00.721Z,606.00
2024-01-25T08:04:00.737Z,609.00
2024-01-25T08:05:00.810Z,612.00
2024-01-25T08:06:01.639Z,619.00
2024-01-25T08:07:00.869Z,616.00
2024-01-25T08:08:00.940Z,609.00
2024-01-25T08:09:00.917Z,611.00
2024-01-25T08:10:01.039Z,617.00
2024-01-25T08:11:00.970Z,626.00
2024-01-25T08:12:01.018Z,629.00
2024-01-25T08:13:06.877Z,630.00
2024-01-25T08:14:02.152Z,630.00
2024-01-25T08:15:01.125Z,632.00
2024-01-25T08:16:01.145Z,638.00
2024-01-25T08:17:01.139Z,645.00
2024-01-25T08:18:01.273Z,656.00
2024-01-25T08:19:01.367Z,656.00
2024-01-25T08:20:01.170Z,664.00
2024-01-25T08:21:01.200Z,665.00
2024-01-25T08:22:01.075Z,664.00
2024-01-25T08:23:01.098Z,678.00
2024-01-25T08:24:01.109Z,718.00
2024-01-25T08:25:01.192Z,752.00
2024-01-25T08:26:01.140Z,754.00
2024-01-25T08:27:01.077Z,762.00
2024-01-25T08:28:01.290Z,775.00
2024-01-25T08:29:01.091Z,772.00
2024-01-25T08:30:01.172Z,774.00
2024-01-25T08:31:01.180Z,782.00
2024-01-25T08:32:01.069Z,784.00
2024-01-25T08:33:01.244Z,802.00
2024-01-25T08:34:01.278Z,811.00
2024-01-25T08:35:01.211Z,812.00
2024-01-25T08:36:01.331Z,802.00
2024-01-25T08:37:01.162Z,808.00
2024-01-25T08:38:01.274Z,805.00
2024-01-25T08:39:01.348Z,807.00
2024-01-25T08:40:01.388Z,809.00
2024-01-25T08:41:01.393Z,810.00
2024-01-25T08:42:01.572Z,825.00
2024-01-25T08:43:01.579Z,833.00
2024-01-25T08:44:01.542Z,840.00
2024-01-25T08:45:01.732Z,847.00
2024-01-25T08:46:01.696Z,870.00
2024-01-25T08:47:01.719Z,881.00
2024-01-25T08:48:02.036Z,898.00
2024-01-25T08:49:01.928Z,913.00
2024-01-25T08:50:01.940Z,914.00
2024-01-25T08:51:01.900Z,932.00
2024-01-25T08:52:01.969Z,929.00
2024-01-25T08:53:01.991Z,947.00
2024-01-25T08:54:02.018Z,965.00
2024-01-25T08:55:02.092Z,974.00
2024-01-25T08:56:04.340Z,990.00
2024-01-25T08:57:02.094Z,990.00
2024-01-25T08:58:02.196Z,991.00
2024-01-25T08:59:02.072Z,995.00
2024-01-25T09:00:02.150Z,1006.00
2024-01-25T09:01:02.223Z,1019.00
2024-01-25T09:02:02.233Z,1017.00
2024-01-25T09:03:02.107Z,1055.00
2024-01-25T09:04:02.264Z,1066.00
2024-01-25T09:05:02.247Z,1101.00
2024-01-25T09:06:02.373Z,1116.00
2024-01-25T09:07:02.348Z,1142.00
2024-01-25T09:08:02.346Z,1161.00
2024-01-25T09:09:02.118Z,1168.00
2024-01-25T09:10:02.165Z,1178.00
2024-01-25T09:11:02.113Z,1183.00
2024-01-25T09:12:02.103Z,1179.00
2024-01-25T09:13:02.150Z,1171.00
2024-01-25T09:14:02.115Z,1173.00
2024-01-25T09:15:02.109Z,1172.00
2024-01-25T09:16:02.211Z,1182.00
2024-01-25T09:17:02.107Z,1185.00
2024-01-25T09:18:02.231Z,1186.00
2024-01-25T09:19:02.314Z,1186.00
2024-01-25T09:20:02.818Z,1201.00
2024-01-25T09:21:02.197Z,1198.00
2024-01-25T09:22:02.188Z,1197.00
2024-01-25T09:23:09.550Z,600.00
2024-01-25T09:24:09.532Z,600.00
2024-01-25T09:25:10.150Z,600.00
2024-01-25T09:26:09.541Z,600.00
2024-01-25T09:27:09.518Z,600.00
2024-01-25T09:28:09.622Z,605.00
2024-01-25T09:29:09.544Z,601.00
2024-01-25T09:30:09.515Z,601.00
2024-01-25T09:31:09.581Z,602.00
2024-01-25T09:32:09.541Z,605.00
2024-01-25T09:33:09.638Z,603.00
2024-01-25T09:34:09.723Z,599.00
2024-01-25T09:35:09.692Z,587.00
2024-01-25T09:36:09.652Z,593.00
2024-01-25T09:37:09.625Z,600.00
2024-01-25T09:38:09.571Z,600.00
2024-01-25T09:39:09.569Z,601.00
2024-01-25T09:40:09.649Z,605.00
2024-01-25T09:41:09.622Z,602.00
2024-01-25T09:42:09.665Z,606.00
2024-01-25T09:43:09.781Z,605.00
2024-01-25T09:44:09.741Z,615.00
2024-01-25T09:45:09.794Z,621.00
2024-01-25T09:46:09.872Z,624.00
2024-01-25T09:47:09.888Z,639.00
2024-01-25T09:48:12.914Z,649.00
2024-01-25T09:49:10.038Z,658.00
2024-01-25T09:50:09.982Z,670.00
2024-01-25T09:51:09.903Z,687.00
2024-01-25T09:52:09.927Z,700.00
2024-01-25T09:53:09.872Z,710.00
2024-01-25T09:54:09.874Z,721.00
2024-01-25T09:55:09.953Z,723.00
2024-01-25T09:56:09.882Z,730.00
2024-01-25T09:57:09.890Z,750.00
2024-01-25T09:58:10.081Z,751.00
2024-01-25T09:59:09.899Z,759.00
2024-01-25T10:00:09.882Z,758.00
2024-01-25T10:01:09.929Z,767.00
2024-01-25T10:02:10.027Z,773.00
2024-01-25T10:03:09.899Z,778.00
2024-01-25T10:04:10.195Z,768.00
2024-01-25T10:05:10.073Z,790.00
2024-01-25T10:06:10.081Z,781.00
2024-01-25T10:07:10.078Z,776.00
2024-01-25T10:08:10.075Z,783.00
2024-01-25T10:09:09.893Z,771.00
2024-01-25T10:10:09.994Z,784.00
2024-01-25T10:11:09.909Z,795.00
2024-01-25T10:12:17.198Z,795.00
2024-01-25T10:13:10.904Z,796.00
2024-01-25T10:14:09.910Z,796.00
2024-01-25T10:15:09.907Z,802.00
2024-01-25T10:16:09.930Z,806.00
2024-01-25T10:17:09.974Z,826.00
2024-01-25T10:19:10.226Z,813.00
2024-01-25T10:20:10.059Z,814.00
2024-01-25T10:21:10.038Z,812.00
2024-01-25T10:22:10.225Z,816.00
2024-01-25T10:23:10.015Z,834.00
2024-01-25T10:24:10.033Z,833.00
2024-01-25T10:25:10.019Z,839.00
2024-01-25T10:26:09.885Z,835.00
2024-01-25T10:27:09.908Z,819.00
2024-01-25T10:28:10.010Z,812.00
2024-01-25T10:29:09.997Z,816.00
2024-01-25T10:30:09.922Z,817.00
2024-01-25T10:31:10.057Z,817.00
2024-01-25T10:32:09.870Z,817.00
2024-01-25T10:33:09.933Z,816.00
2024-01-25T10:34:09.986Z,805.00
2024-01-25T10:35:10.164Z,782.00
2024-01-25T10:36:09.946Z,777.00
2024-01-25T10:37:10.080Z,763.00
2024-01-25T10:38:09.941Z,736.00
2024-01-25T10:39:09.924Z,720.00
2024-01-25T10:40:09.963Z,736.00
2024-01-25T10:41:09.906Z,749.00
2024-01-25T10:42:09.914Z,754.00
2024-01-25T10:43:09.918Z,723.00
2024-01-25T10:44:09.921Z,746.00
2024-01-25T10:45:09.973Z,759.00
2024-01-25T10:46:09.935Z,760.00
2024-01-25T10:47:09.898Z,748.00
2024-01-25T10:48:10.008Z,741.00
2024-01-25T10:49:10.167Z,734.00
2024-01-25T10:50:10.034Z,764.00
2024-01-25T10:51:09.936Z,747.00
2024-01-25T10:52:09.925Z,746.00
2024-01-25T10:53:09.915Z,765.00
2024-01-25T10:54:09.916Z,768.00
2024-01-25T10:55:10.038Z,783.00
2024-01-25T10:56:09.932Z,793.00
2024-01-25T10:57:09.942Z,798.00
2024-01-25T10:58:10.037Z,818.00
2024-01-25T10:59:09.892Z,827.00
2024-01-25T11:00:09.934Z,838.00
2024-01-25T11:01:10.710Z,845.00
2024-01-25T11:02:10.040Z,847.00
2024-01-25T11:03:10.006Z,862.00
2024-01-25T11:04:10.011Z,871.00
2024-01-25T11:05:10.139Z,877.00
2024-01-25T11:06:10.037Z,883.00
2024-01-25T11:07:10.146Z,884.00
2024-01-25T11:08:09.970Z,890.00
2024-01-25T11:09:09.923Z,887.00
2024-01-25T11:10:10.016Z,900.00
2024-01-25T11:11:09.991Z,894.00
2024-01-25T11:12:09.966Z,899.00
2024-01-25T11:13:09.987Z,901.00
2024-01-25T11:14:09.924Z,900.00
2024-01-25T11:15:09.956Z,915.00
2024-01-25T11:16:10.156Z,913.00
2024-01-25T11:17:10.051Z,913.00
2024-01-25T11:18:10.324Z,919.00
2024-01-25T11:19:10.381Z,931.00
2024-01-25T11:20:10.397Z,918.00
2024-01-25T11:21:10.339Z,915.00
2024-01-25T11:22:10.454Z,908.00
2024-01-25T11:23:10.509Z,904.00
2024-01-25T11:24:10.509Z,908.00
2024-01-25T11:25:10.686Z,905.00
2024-01-25T11:26:10.839Z,908.00
2024-01-25T11:27:10.739Z,901.00
2024-01-25T11:28:10.906Z,892.00
2024-01-25T11:29:10.789Z,887.00
2024-01-25T11:30:10.830Z,867.00
2024-01-25T11:31:10.851Z,848.00
2024-01-25T11:32:10.848Z,827.00
2024-01-25T11:33:10.952Z,810.00
2024-01-25T11:34:10.953Z,792.00
2024-01-25T11:35:11.191Z,781.00
2024-01-25T11:36:10.913Z,769.00
2024-01-25T11:37:10.881Z,768.00
2024-01-25T11:38:10.869Z,763.00
2024-01-25T11:39:10.920Z,769.00
2024-01-25T11:40:10.942Z,781.00
2024-01-25T11:41:10.925Z,799.00
2024-01-25T11:42:10.948Z,825.00
2024-01-25T11:43:11.027Z,834.00
2024-01-25T11:44:10.959Z,848.00
2024-01-25T11:45:11.006Z,855.00
2024-01-25T11:46:11.232Z,870.00
2024-01-25T11:47:10.962Z,874.00
2024-01-25T11:48:11.124Z,872.00
2024-01-25T11:49:11.245Z,877.00
2024-01-25T11:50:11.127Z,881.00
2024-01-25T11:51:11.087Z,886.00
2024-01-25T11:52:11.165Z,884.00
2024-01-25T11:53:11.089Z,874.00
2024-01-25T11:54:11.114Z,878.00
2024-01-25T11:55:11.235Z,874.00
2024-01-25T11:56:11.118Z,876.00
2024-01-25T11:57:11.141Z,880.00
2024-01-25T11:58:11.139Z,881.00
2024-01-25T11:59:11.148Z,873.00
2024-01-25T12:00:11.149Z,884.00
2024-01-25T12:01:11.301Z,885.00
2024-01-25T12:02:11.311Z,891.00
2024-01-25T12:03:11.174Z,883.00
2024-01-25T12:04:11.363Z,892.00
2024-01-25T12:05:11.503Z,885.00
2024-01-25T12:06:11.539Z,885.00
2024-01-25T12:07:11.334Z,887.00
2024-01-25T12:08:11.293Z,894.00
2024-01-25T12:09:11.227Z,887.00
2024-01-25T12:10:11.383Z,885.00
2024-01-25T12:11:11.281Z,887.00
2024-01-25T12:12:11.247Z,891.00
2024-01-25T12:13:11.360Z,888.00
2024-01-25T12:14:11.370Z,889.00
2024-01-25T12:15:11.306Z,887.00
2024-01-25T12:16:11.534Z,884.00
2024-01-25T12:17:11.346Z,894.00
2024-01-25T12:18:11.529Z,877.00
2024-01-25T12:19:11.479Z,884.00
2024-01-25T12:20:11.706Z,891.00
2024-01-25T12:21:11.439Z,894.00
2024-01-25T12:22:11.470Z,887.00
2024-01-25T12:23:11.426Z,885.00
2024-01-25T12:24:11.442Z,888.00
2024-01-25T12:25:11.846Z,901.00
2024-01-25T12:26:11.617Z,887.00
2024-01-25T12:27:11.457Z,887.00
2024-01-25T12:28:11.621Z,888.00
2024-01-25T12:29:11.470Z,886.00
2024-01-25T12:30:11.468Z,887.00
2024-01-25T12:31:11.526Z,882.00
2024-01-25T12:32:34.092Z,883.00
2024-01-25T12:33:11.601Z,884.00
2024-01-25T12:34:11.666Z,887.00
2024-01-25T12:35:11.592Z,888.00
2024-01-25T12:36:11.716Z,896.00
2024-01-25T12:37:11.611Z,899.00
2024-01-25T12:38:11.546Z,902.00
2024-01-25T12:39:11.540Z,901.00
2024-01-25T12:40:11.572Z,901.00
2024-01-25T12:41:11.572Z,898.00
2024-01-25T12:42:11.575Z,905.00
2024-01-25T12:43:11.603Z,895.00
2024-01-25T12:44:11.534Z,885.00
2024-01-25T12:45:11.563Z,901.00
2024-01-25T12:46:21.946Z,893.00
2024-01-25T12:47:12.611Z,893.00
2024-01-25T12:48:11.631Z,894.00
2024-01-25T12:49:11.664Z,893.00
2024-01-25T12:50:11.567Z,898.00
2024-01-25T12:51:11.598Z,896.00
2024-01-25T12:52:11.576Z,900.00
2024-01-25T12:53:11.525Z,904.00
2024-01-25T12:54:11.609Z,897.00
2024-01-25T12:55:11.613Z,894.00
2024-01-25T12:56:11.588Z,893.00
2024-01-25T12:57:11.578Z,890.00
2024-01-25T12:58:11.551Z,893.00
2024-01-25T12:59:11.564Z,897.00
2024-01-25T13:00:11.674Z,894.00
2024-01-25T13:01:11.784Z,897.00
2024-01-25T13:02:11.592Z,895.00
2024-01-25T13:03:11.583Z,899.00
2024-01-25T13:04:11.727Z,892.00
2024-01-25T13:05:11.610Z,846.00
2024-01-25T13:06:11.608Z,764.00
2024-01-25T13:07:11.577Z,729.00
2024-01-25T13:08:11.593Z,697.00
2024-01-25T13:09:11.579Z,691.00
2024-01-25T13:10:11.599Z,695.00
2024-01-25T13:11:11.606Z,694.00
2024-01-25T13:12:11.607Z,711.00
2024-01-25T13:13:11.575Z,698.00
2024-01-25T13:14:11.619Z,676.00
2024-01-25T13:15:11.714Z,668.00
2024-01-25T13:16:11.683Z,662.00
2024-01-25T13:17:11.695Z,657.00
2024-01-25T13:18:11.844Z,651.00
2024-01-25T13:19:11.761Z,648.00
2024-01-25T13:20:11.726Z,641.00
2024-01-25T13:21:11.812Z,636.00
2024-01-25T13:22:11.781Z,635.00
2024-01-25T13:23:11.863Z,628.00
2024-01-25T13:24:11.857Z,625.00
2024-01-25T13:25:11.844Z,624.00
2024-01-25T13:26:11.900Z,623.00
2024-01-25T13:27:11.919Z,619.00
2024-01-25T13:28:11.908Z,614.00
2024-01-25T13:29:11.928Z,615.00
2024-01-25T13:30:11.959Z,616.00
2024-01-25T13:31:11.998Z,613.00
2024-01-25T13:32:11.966Z,608.00
2024-01-25T13:33:12.174Z,612.00
2024-01-25T13:34:12.192Z,606.00
2024-01-25T13:35:12.028Z,607.00
2024-01-25T13:36:12.126Z,603.00
2024-01-25T13:37:12.072Z,607.00
2024-01-25T13:38:12.083Z,611.00
2024-01-25T13:39:12.200Z,607.00
2024-01-25T13:40:12.110Z,613.00
2024-01-25T13:41:12.124Z,614.00
2024-01-25T13:42:12.191Z,613.00
2024-01-25T13:43:12.155Z,614.00
2024-01-25T13:44:12.188Z,617.00
2024-01-25T13:45:12.221Z,615.00
2024-01-25T13:46:12.245Z,619.00
2024-01-25T13:47:12.209Z,612.00
2024-01-25T13:48:12.315Z,617.00
2024-01-25T13:49:12.341Z,616.00
2024-01-25T13:50:12.248Z,614.00
2024-01-25T13:51:12.259Z,618.00
2024-01-25T13:52:12.294Z,619.00
2024-01-25T13:53:12.284Z,625.00
2024-01-25T13:54:12.385Z,625.00
2024-01-25T13:55:12.362Z,626.00
2024-01-25T13:56:12.338Z,627.00
2024-01-25T13:57:12.414Z,628.00
2024-01-25T13:58:12.436Z,629.00
2024-01-25T13:59:12.417Z,624.00
2024-01-25T14:00:12.466Z,625.00
2024-01-25T14:01:12.716Z,627.00
2024-01-25T14:02:12.488Z,628.00
2024-01-25T14:03:12.527Z,628.00
2024-01-25T14:04:12.648Z,629.00
2024-01-25T14:05:12.515Z,633.00
2024-01-25T14:06:12.790Z,635.00
2024-01-25T14:07:12.539Z,636.00
2024-01-25T14:08:12.574Z,635.00
2024-01-25T14:09:12.638Z,634.00
2024-01-25T14:10:12.644Z,633.00
2024-01-25T14:11:12.615Z,629.00
2024-01-25T14:12:12.614Z,635.00
2024-01-25T14:13:12.630Z,640.00
2024-01-25T14:14:12.596Z,648.00
2024-01-25T14:15:12.672Z,647.00
2024-01-25T14:16:12.628Z,644.00
2024-01-25T14:17:12.660Z,645.00
2024-01-25T14:18:12.839Z,647.00
2024-01-25T14:19:12.837Z,644.00
2024-01-25T14:20:12.732Z,646.00
2024-01-25T14:21:14.007Z,650.00
2024-01-25T14:22:22.603Z,645.00
2024-01-25T14:23:13.767Z,644.00
2024-01-25T14:24:12.813Z,641.00
2024-01-25T14:25:12.780Z,639.00
2024-01-25T14:26:12.784Z,643.00
2024-01-25T14:27:12.840Z,642.00
2024-01-25T14:28:12.782Z,640.00
2024-01-25T14:29:12.807Z,641.00
2024-01-25T14:30:12.860Z,639.00
2024-01-25T14:31:12.776Z,640.00
2024-01-25T14:32:12.802Z,639.00
2024-01-25T14:33:12.977Z,636.00
2024-01-25T14:34:12.913Z,636.00
2024-01-25T14:35:12.962Z,629.00
2024-01-25T14:36:12.836Z,631.00
2024-01-25T14:37:12.814Z,629.00
2024-01-25T14:38:12.823Z,627.00
2024-01-25T14:39:12.803Z,627.00
2024-01-25T14:41:12.861Z,622.00
2024-01-25T14:42:12.867Z,619.00
2024-01-25T14:43:12.830Z,616.00
2024-01-25T14:44:12.807Z,614.00
2024-01-25T14:45:12.869Z,613.00
2024-01-25T14:46:12.837Z,613.00
2024-01-25T14:47:12.831Z,616.00
2024-01-25T14:48:12.964Z,622.00
2024-01-25T14:49:12.960Z,620.00
2024-01-25T14:50:13.000Z,620.00
2024-01-25T14:51:12.919Z,623.00
2024-01-25T14:52:12.910Z,619.00
2024-01-25T14:53:12.977Z,610.00
2024-01-25T14:54:13.090Z,622.00
2024-01-25T14:55:13.117Z,627.00
2024-01-25T14:56:13.038Z,632.00
2024-01-25T14:57:13.165Z,637.00
2024-01-25T14:58:13.105Z,647.00
2024-01-25T14:59:13.193Z,655.00
2024-01-25T15:00:13.204Z,658.00
2024-01-25T15:01:13.278Z,663.00
2024-01-25T15:02:13.217Z,672.00
2024-01-25T15:03:13.324Z,664.00
2024-01-25T15:04:13.288Z,684.00
2024-01-25T15:05:13.292Z,704.00
2024-01-25T15:06:13.374Z,716.00
2024-01-25T15:07:13.356Z,717.00
2024-01-25T15:08:13.327Z,728.00
2024-01-25T15:09:13.363Z,744.00
2024-01-25T15:10:13.423Z,740.00
2024-01-25T15:11:13.383Z,754.00
2024-01-25T15:12:13.459Z,751.00
2024-01-25T15:13:13.394Z,753.00
2024-01-25T15:14:13.414Z,757.00
2024-01-25T15:15:13.420Z,769.00
2024-01-25T15:16:13.438Z,776.00
2024-01-25T15:17:13.432Z,775.00
2024-01-25T15:18:13.571Z,776.00
2024-01-25T15:19:13.518Z,778.00
2024-01-25T15:20:13.523Z,785.00
2024-01-25T15:21:13.555Z,794.00
2024-01-25T15:22:13.597Z,796.00
2024-01-25T15:23:13.570Z,792.00
2024-01-25T15:24:13.627Z,797.00
2024-01-25T15:25:13.560Z,796.00
2024-01-25T15:26:13.608Z,804.00
2024-01-25T15:27:13.626Z,793.00
2024-01-25T15:28:14.053Z,797.00
2024-01-25T15:29:13.629Z,804.00
2024-01-25T15:30:13.680Z,809.00
2024-01-25T15:31:13.792Z,815.00
2024-01-25T15:32:13.667Z,816.00
2024-01-25T15:33:13.748Z,820.00
2024-01-25T15:34:13.863Z,816.00
2024-01-25T15:35:13.743Z,820.00
2024-01-25T15:36:13.800Z,820.00
2024-01-25T15:37:13.778Z,820.00
2024-01-25T15:38:13.759Z,824.00
2024-01-25T15:39:13.808Z,822.00
2024-01-25T15:40:14.002Z,833.00
2024-01-25T15:41:13.801Z,828.00
2024-01-25T15:42:13.886Z,826.00
2024-01-25T15:43:13.848Z,829.00
2024-01-25T15:44:13.856Z,830.00
2024-01-25T15:45:13.897Z,833.00
2024-01-25T15:46:14.445Z,838.00
2024-01-25T15:47:13.869Z,831.00
2024-01-25T15:48:14.086Z,838.00
2024-01-25T15:49:13.894Z,832.00
2024-01-25T15:50:13.928Z,833.00
2024-01-25T15:51:14.107Z,835.00
2024-01-25T15:52:14.903Z,834.00
2024-01-25T15:53:13.976Z,838.00
2024-01-25T15:54:13.989Z,842.00
2024-01-25T15:55:13.982Z,844.00
2024-01-25T15:56:13.982Z,843.00
2024-01-25T15:57:14.032Z,840.00
2024-01-25T15:58:14.066Z,841.00
2024-01-25T15:59:14.048Z,856.00
2024-01-25T16:00:14.104Z,837.00
2024-01-25T16:01:14.181Z,840.00
2024-01-25T16:02:14.079Z,838.00
2024-01-25T16:03:14.117Z,837.00
2024-01-25T16:04:14.179Z,833.00
2024-01-25T16:05:14.142Z,834.00
2024-01-25T16:06:14.179Z,836.00
2024-01-25T16:07:14.130Z,839.00
2024-01-25T16:08:14.172Z,833.00
2024-01-25T16:09:14.363Z,844.00
2024-01-25T16:10:14.217Z,836.00
2024-01-25T16:11:14.241Z,835.00
2024-01-25T16:12:14.324Z,842.00
2024-01-25T16:13:14.246Z,842.00
2024-01-25T16:14:36.765Z,838.00
2024-01-25T16:16:41.712Z,838.00
2024-01-25T16:17:41.757Z,841.00
2024-01-25T16:20:51.440Z,838.00
2024-01-25T16:21:28.950Z,845.00
2024-01-25T16:22:28.965Z,876.00
2024-01-25T16:23:29.006Z,916.00
2024-01-25T16:24:28.979Z,958.00
2024-01-25T16:25:28.978Z,1000.00
2024-01-25T16:26:28.984Z,1016.00
2024-01-25T16:27:29.027Z,978.00
2024-01-25T16:28:28.986Z,966.00
2024-01-25T16:29:28.964Z,952.00
2024-01-25T16:30:29.004Z,935.00
2024-01-25T16:31:28.988Z,927.00
2024-01-25T16:32:28.986Z,914.00
2024-01-25T16:33:29.103Z,906.00
2024-01-25T16:34:29.108Z,899.00
2024-01-25T16:35:29.001Z,899.00
2024-01-25T16:36:29.063Z,889.00
2024-01-25T16:37:29.012Z,887.00
2024-01-25T16:38:28.988Z,879.00
2024-01-25T16:39:29.036Z,878.00
2024-01-25T16:40:28.961Z,874.00
2024-01-25T16:41:29.067Z,872.00
2024-01-25T16:42:29.062Z,864.00
2024-01-25T16:43:29.005Z,871.00
2024-01-25T16:44:28.997Z,863.00
2024-01-25T16:45:29.123Z,857.00
2024-01-25T16:46:28.997Z,859.00
2024-01-25T16:47:28.968Z,863.00
2024-01-25T16:48:29.106Z,847.00
2024-01-25T16:49:29.202Z,854.00
2024-01-25T16:50:29.066Z,848.00
2024-01-25T16:51:29.073Z,861.00
2024-01-25T16:52:29.019Z,853.00
2024-01-25T16:53:29.038Z,852.00
2024-01-25T16:54:29.117Z,858.00
2024-01-25T16:55:28.994Z,861.00
2024-01-25T16:56:29.000Z,848.00
2024-01-25T16:57:29.053Z,851.00
2024-01-25T16:58:29.000Z,833.00
2024-01-25T16:59:28.999Z,853.00
2024-01-25T17:00:29.059Z,854.00
2024-01-25T17:01:29.183Z,848.00
2024-01-25T17:02:28.999Z,852.00
2024-01-25T17:03:29.114Z,846.00
2024-01-25T17:04:29.088Z,850.00
2024-01-25T17:05:29.008Z,844.00
2024-01-25T17:06:29.234Z,844.00
2024-01-25T17:07:29.096Z,843.00
2024-01-25T17:08:29.156Z,850.00
2024-01-25T17:09:29.042Z,842.00
2024-01-25T17:10:29.034Z,845.00
2024-01-25T17:11:29.026Z,842.00
2024-01-25T17:12:29.067Z,846.00
2024-01-25T17:13:29.075Z,847.00
2024-01-25T17:14:29.055Z,841.00
2024-01-25T17:15:29.100Z,841.00
2024-01-25T17:16:29.066Z,851.00
2024-01-25T17:17:29.109Z,842.00
2024-01-25T17:18:29.278Z,844.00
2024-01-25T17:19:29.208Z,837.00
2024-01-25T17:20:29.120Z,845.00
2024-01-25T17:21:29.205Z,849.00
2024-01-25T17:22:29.188Z,830.00
2024-01-25T17:23:29.202Z,847.00
2024-01-25T17:24:29.256Z,832.00
2024-01-25T17:25:29.230Z,841.00
2024-01-25T17:26:29.248Z,844.00
2024-01-25T17:27:29.274Z,843.00
2024-01-25T17:28:29.271Z,839.00
2024-01-25T17:29:29.281Z,845.00
2024-01-25T17:30:29.307Z,845.00
2024-01-25T17:31:29.341Z,837.00
2024-01-25T17:32:29.374Z,840.00
2024-01-25T17:33:29.480Z,832.00
2024-01-25T17:34:29.492Z,844.00
2024-01-25T17:35:29.378Z,842.00
2024-01-25T17:36:29.479Z,839.00
2024-01-25T17:37:29.415Z,846.00
2024-01-25T17:38:29.436Z,834.00
2024-01-25T17:39:29.489Z,833.00
2024-01-25T17:40:29.456Z,835.00
2024-01-25T17:41:29.464Z,839.00
2024-01-25T17:42:29.500Z,835.00
2024-01-25T17:43:29.542Z,838.00
2024-01-25T17:44:29.534Z,844.00
2024-01-25T17:45:29.546Z,841.00
2024-01-25T17:46:29.645Z,833.00
2024-01-25T17:47:29.553Z,840.00
2024-01-25T17:48:29.829Z,837.00
2024-01-25T17:49:29.746Z,830.00
2024-01-25T17:50:29.606Z,833.00
2024-01-25T17:51:29.651Z,833.00
2024-01-25T17:52:29.616Z,833.00
2024-01-25T17:53:29.601Z,834.00
2024-01-25T17:54:29.653Z,835.00
2024-01-25T17:55:29.675Z,834.00
2024-01-25T17:56:29.627Z,826.00
2024-01-25T17:57:29.679Z,830.00
2024-01-25T17:58:29.669Z,826.00
2024-01-25T17:59:29.695Z,832.00
2024-01-25T18:00:29.720Z,836.00
